sensor_id;sensor_type;location;lat;lon;timestamp;temperature;humidity
5492;DHT22;2768;53.540;10.224;2023-12-20T00:01:07;6.70;99.90
5492;DHT22;2768;53.540;10.224;2023-12-20T00:07:01;6.60;99.90
5492;DHT22;2768;53.540;10.224;2023-12-20T00:12:54;6.60;99.90
5492;DHT22;2768;53.540;10.224;2023-12-20T00:18:49;6.60;99.90
5492;DHT22;2768;53.540;10.224;2023-12-20T00:24:42;6.40;99.90
5492;DHT22;2768;53.540;10.224;2023-12-20T00:30:36;6.40;99.90
5492;DHT22;2768;53.540;10.224;2023-12-20T00:36:31;6.40;99.90
5492;DHT22;2768;53.540;10.224;2023-12-20T00:42:25;6.40;99.90
5492;DHT22;2768;53.540;10.224;2023-12-20T00:48:18;6.30;99.90
5492;DHT22;2768;53.540;10.224;2023-12-20T00:54:13;6.30;99.90
5492;DHT22;2768;53.540;10.224;2023-12-20T01:00:07;6.20;99.90
5492;DHT22;2768;53.540;10.224;2023-12-20T01:06:01;6.20;99.90
5492;DHT22;2768;53.540;10.224;2023-12-20T01:11:58;6.30;99.90
5492;DHT22;2768;53.540;10.224;2023-12-20T01:17:51;6.30;99.90
5492;DHT22;2768;53.540;10.224;2023-12-20T01:23:45;6.30;99.90
5492;DHT22;2768;53.540;10.224;2023-12-20T01:29:39;6.40;99.90
5492;DHT22;2768;53.540;10.224;2023-12-20T01:35:33;6.30;99.90
5492;DHT22;2768;53.540;10.224;2023-12-20T01:41:26;6.30;99.90
5492;DHT22;2768;53.540;10.224;2023-12-20T01:47:21;6.30;99.90
5492;DHT22;2768;53.540;10.224;2023-12-20T01:53:14;6.20;99.90
5492;DHT22;2768;53.540;10.224;2023-12-20T01:59:09;6.30;99.90
5492;DHT22;2768;53.540;10.224;2023-12-20T02:05:04;6.10;99.90
5492;DHT22;2768;53.540;10.224;2023-12-20T02:10:59;6.10;99.90
5492;DHT22;2768;53.540;10.224;2023-12-20T02:16:52;6.20;99.90
5492;DHT22;2768;53.540;10.224;2023-12-20T02:22:47;6.20;99.90
5492;DHT22;2768;53.540;10.224;2023-12-20T02:28:41;6.20;99.90
5492;DHT22;2768;53.540;10.224;2023-12-20T02:34:34;6.10;99.90
5492;DHT22;2768;53.540;10.224;2023-12-20T02:40:29;6.10;99.90
5492;DHT22;2768;53.540;10.224;2023-12-20T02:46:23;6.00;99.90
5492;DHT22;2768;53.540;10.224;2023-12-20T02:52:16;6.10;99.90
5492;DHT22;2768;53.540;10.224;2023-12-20T02:58:11;6.00;99.90
5492;DHT22;2768;53.540;10.224;2023-12-20T03:04:04;6.00;99.90
5492;DHT22;2768;53.540;10.224;2023-12-20T03:09:58;6.10;99.90
5492;DHT22;2768;53.540;10.224;2023-12-20T03:16:12;6.10;99.90
5492;DHT22;2768;53.540;10.224;2023-12-20T03:22:10;6.00;99.90
5492;DHT22;2768;53.540;10.224;2023-12-20T03:28:04;6.10;99.90
5492;DHT22;2768;53.540;10.224;2023-12-20T03:33:59;6.10;99.90
5492;DHT22;2768;53.540;10.224;2023-12-20T03:39:53;6.00;99.90
5492;DHT22;2768;53.540;10.224;2023-12-20T03:45:46;6.00;99.90
5492;DHT22;2768;53.540;10.224;2023-12-20T03:51:41;6.00;99.90
5492;DHT22;2768;53.540;10.224;2023-12-20T03:57:34;6.10;99.90
5492;DHT22;2768;53.540;10.224;2023-12-20T04:03:28;5.90;99.90
5492;DHT22;2768;53.540;10.224;2023-12-20T04:09:22;6.00;99.90
5492;DHT22;2768;53.540;10.224;2023-12-20T04:15:16;5.90;99.90
5492;DHT22;2768;53.540;10.224;2023-12-20T04:21:10;6.00;99.90
5492;DHT22;2768;53.540;10.224;2023-12-20T04:27:05;6.00;99.90
5492;DHT22;2768;53.540;10.224;2023-12-20T04:32:59;6.00;99.90
5492;DHT22;2768;53.540;10.224;2023-12-20T04:38:53;6.00;99.90
5492;DHT22;2768;53.540;10.224;2023-12-20T04:44:48;6.00;99.90
5492;DHT22;2768;53.540;10.224;2023-12-20T04:50:41;5.90;99.90
5492;DHT22;2768;53.540;10.224;2023-12-20T04:56:34;6.00;99.90
5492;DHT22;2768;53.540;10.224;2023-12-20T05:02:29;6.00;99.90
5492;DHT22;2768;53.540;10.224;2023-12-20T05:08:22;6.00;99.90
5492;DHT22;2768;53.540;10.224;2023-12-20T05:14:15;6.00;99.90
5492;DHT22;2768;53.540;10.224;2023-12-20T05:20:10;6.10;99.90
5492;DHT22;2768;53.540;10.224;2023-12-20T05:26:03;6.00;99.90
5492;DHT22;2768;53.540;10.224;2023-12-20T05:31:58;6.10;99.90
5492;DHT22;2768;53.540;10.224;2023-12-20T05:37:53;6.10;99.90
5492;DHT22;2768;53.540;10.224;2023-12-20T05:43:46;6.20;99.90
5492;DHT22;2768;53.540;10.224;2023-12-20T05:49:40;6.10;99.90
5492;DHT22;2768;53.540;10.224;2023-12-20T05:55:34;6.20;99.90
5492;DHT22;2768;53.540;10.224;2023-12-20T06:01:27;6.20;99.90
5492;DHT22;2768;53.540;10.224;2023-12-20T06:07:21;6.20;99.90
5492;DHT22;2768;53.540;10.224;2023-12-20T06:13:16;6.20;99.90
5492;DHT22;2768;53.540;10.224;2023-12-20T06:19:10;6.10;99.90
5492;DHT22;2768;53.540;10.224;2023-12-20T06:25:03;6.20;99.90
5492;DHT22;2768;53.540;10.224;2023-12-20T06:31:02;6.20;99.90
5492;DHT22;2768;53.540;10.224;2023-12-20T06:36:56;6.20;99.90
5492;DHT22;2768;53.540;10.224;2023-12-20T06:42:49;6.10;99.90
5492;DHT22;2768;53.540;10.224;2023-12-20T06:48:59;6.20;99.90
5492;DHT22;2768;53.540;10.224;2023-12-20T06:54:52;6.20;99.90
5492;DHT22;2768;53.540;10.224;2023-12-20T07:00:45;6.20;99.90
5492;DHT22;2768;53.540;10.224;2023-12-20T07:06:40;6.30;99.90
5492;DHT22;2768;53.540;10.224;2023-12-20T07:12:34;6.30;99.90
5492;DHT22;2768;53.540;10.224;2023-12-20T07:18:27;6.30;99.90
5492;DHT22;2768;53.540;10.224;2023-12-20T07:24:22;6.30;99.90
5492;DHT22;2768;53.540;10.224;2023-12-20T07:30:15;6.20;99.90
5492;DHT22;2768;53.540;10.224;2023-12-20T07:36:09;6.30;99.90
5492;DHT22;2768;53.540;10.224;2023-12-20T07:42:04;6.20;99.90
5492;DHT22;2768;53.540;10.224;2023-12-20T07:47:58;6.30;99.90
5492;DHT22;2768;53.540;10.224;2023-12-20T07:53:51;6.30;99.90
5492;DHT22;2768;53.540;10.224;2023-12-20T07:59:46;6.30;99.90
5492;DHT22;2768;53.540;10.224;2023-12-20T08:05:39;6.30;99.90
5492;DHT22;2768;53.540;10.224;2023-12-20T08:11:33;6.40;99.90
5492;DHT22;2768;53.540;10.224;2023-12-20T08:17:28;6.50;99.90
5492;DHT22;2768;53.540;10.224;2023-12-20T08:23:22;6.50;99.90
5492;DHT22;2768;53.540;10.224;2023-12-20T08:29:24;6.60;99.90
5492;DHT22;2768;53.540;10.224;2023-12-20T08:35:19;6.50;99.90
5492;DHT22;2768;53.540;10.224;2023-12-20T08:41:13;6.60;99.90
5492;DHT22;2768;53.540;10.224;2023-12-20T08:47:06;6.60;99.90
5492;DHT22;2768;53.540;10.224;2023-12-20T08:53:02;6.60;99.90
5492;DHT22;2768;53.540;10.224;2023-12-20T08:58:55;6.70;99.90
5492;DHT22;2768;53.540;10.224;2023-12-20T09:04:49;6.70;99.90
5492;DHT22;2768;53.540;10.224;2023-12-20T09:10:45;6.70;99.90
5492;DHT22;2768;53.540;10.224;2023-12-20T09:16:38;6.70;99.90
5492;DHT22;2768;53.540;10.224;2023-12-20T09:22:32;6.70;99.90
5492;DHT22;2768;53.540;10.224;2023-12-20T09:28:27;6.40;99.90
5492;DHT22;2768;53.540;10.224;2023-12-20T09:34:22;6.40;99.90
5492;DHT22;2768;53.540;10.224;2023-12-20T09:40:18;6.20;99.90
5492;DHT22;2768;53.540;10.224;2023-12-20T09:46:16;6.00;99.90
5492;DHT22;2768;53.540;10.224;2023-12-20T09:52:14;5.90;99.90
5492;DHT22;2768;53.540;10.224;2023-12-20T09:58:09;5.90;99.90
5492;DHT22;2768;53.540;10.224;2023-12-20T10:04:06;6.00;99.90
5492;DHT22;2768;53.540;10.224;2023-12-20T10:10:05;6.00;99.90
5492;DHT22;2768;53.540;10.224;2023-12-20T10:16:01;6.00;99.90
5492;DHT22;2768;53.540;10.224;2023-12-20T10:21:57;5.90;99.90
5492;DHT22;2768;53.540;10.224;2023-12-20T10:28:09;6.10;99.90
5492;DHT22;2768;53.540;10.224;2023-12-20T10:34:03;5.90;99.90
5492;DHT22;2768;53.540;10.224;2023-12-20T10:39:59;5.80;79.70
5492;DHT22;2768;53.540;10.224;2023-12-20T10:45:55;5.80;38.20
5492;DHT22;2768;53.540;10.224;2023-12-20T10:51:48;5.80;24.60
5492;DHT22;2768;53.540;10.224;2023-12-20T10:57:46;6.00;25.60
5492;DHT22;2768;53.540;10.224;2023-12-20T11:03:50;5.90;18.20
5492;DHT22;2768;53.540;10.224;2023-12-20T11:09:47;6.00;20.90
5492;DHT22;2768;53.540;10.224;2023-12-20T11:15:54;6.00;23.40
5492;DHT22;2768;53.540;10.224;2023-12-20T11:21:47;6.00;39.70
5492;DHT22;2768;53.540;10.224;2023-12-20T11:27:42;5.90;59.20
5492;DHT22;2768;53.540;10.224;2023-12-20T11:33:40;5.80;99.90
5492;DHT22;2768;53.540;10.224;2023-12-20T11:39:33;5.80;99.90
5492;DHT22;2768;53.540;10.224;2023-12-20T11:45:28;5.80;99.90
5492;DHT22;2768;53.540;10.224;2023-12-20T11:51:24;5.70;99.90
5492;DHT22;2768;53.540;10.224;2023-12-20T11:57:20;5.40;99.90
5492;DHT22;2768;53.540;10.224;2023-12-20T12:03:15;5.50;99.90
5492;DHT22;2768;53.540;10.224;2023-12-20T12:09:10;5.70;99.90
5492;DHT22;2768;53.540;10.224;2023-12-20T12:15:04;6.10;99.90
5492;DHT22;2768;53.540;10.224;2023-12-20T12:21:01;5.90;99.90
5492;DHT22;2768;53.540;10.224;2023-12-20T12:27:06;5.90;99.90
5492;DHT22;2768;53.540;10.224;2023-12-20T12:32:59;6.30;99.90
5492;DHT22;2768;53.540;10.224;2023-12-20T12:38:53;6.50;99.90
5492;DHT22;2768;53.540;10.224;2023-12-20T12:44:50;7.00;99.90
5492;DHT22;2768;53.540;10.224;2023-12-20T12:50:45;7.30;50.70
5492;DHT22;2768;53.540;10.224;2023-12-20T12:56:39;7.40;1.00
5492;DHT22;2768;53.540;10.224;2023-12-20T13:02:34;7.40;1.00
5492;DHT22;2768;53.540;10.224;2023-12-20T13:08:29;7.20;1.00
5492;DHT22;2768;53.540;10.224;2023-12-20T13:14:23;7.00;1.00
5492;DHT22;2768;53.540;10.224;2023-12-20T13:20:17;6.90;1.00
5492;DHT22;2768;53.540;10.224;2023-12-20T13:26:14;6.80;1.00
5492;DHT22;2768;53.540;10.224;2023-12-20T13:32:07;6.80;1.00
5492;DHT22;2768;53.540;10.224;2023-12-20T13:38:04;6.90;1.00
5492;DHT22;2768;53.540;10.224;2023-12-20T13:43:58;6.90;1.00
5492;DHT22;2768;53.540;10.224;2023-12-20T13:49:52;6.90;1.00
5492;DHT22;2768;53.540;10.224;2023-12-20T13:55:46;6.70;1.00
5492;DHT22;2768;53.540;10.224;2023-12-20T14:01:40;6.60;1.00
5492;DHT22;2768;53.540;10.224;2023-12-20T14:07:34;6.50;1.00
5492;DHT22;2768;53.540;10.224;2023-12-20T14:13:30;6.50;1.00
5492;DHT22;2768;53.540;10.224;2023-12-20T14:19:24;6.40;1.00
5492;DHT22;2768;53.540;10.224;2023-12-20T14:25:17;6.40;1.00
5492;DHT22;2768;53.540;10.224;2023-12-20T14:31:13;6.40;1.00
5492;DHT22;2768;53.540;10.224;2023-12-20T14:37:06;6.40;1.00
5492;DHT22;2768;53.540;10.224;2023-12-20T14:43:00;6.40;1.00
5492;DHT22;2768;53.540;10.224;2023-12-20T14:48:57;6.40;1.00
5492;DHT22;2768;53.540;10.224;2023-12-20T14:54:50;6.40;1.00
5492;DHT22;2768;53.540;10.224;2023-12-20T15:00:44;6.50;1.00
5492;DHT22;2768;53.540;10.224;2023-12-20T15:06:40;6.50;1.00
5492;DHT22;2768;53.540;10.224;2023-12-20T15:12:34;6.50;1.00
5492;DHT22;2768;53.540;10.224;2023-12-20T15:18:27;6.50;1.00
5492;DHT22;2768;53.540;10.224;2023-12-20T15:24:25;6.50;1.00
5492;DHT22;2768;53.540;10.224;2023-12-20T15:30:51;6.40;1.00
5492;DHT22;2768;53.540;10.224;2023-12-20T15:36:45;6.40;1.00
5492;DHT22;2768;53.540;10.224;2023-12-20T15:42:45;6.40;1.00
5492;DHT22;2768;53.540;10.224;2023-12-20T15:48:39;6.30;1.00
5492;DHT22;2768;53.540;10.224;2023-12-20T15:54:32;6.30;1.00
5492;DHT22;2768;53.540;10.224;2023-12-20T16:00:27;6.20;1.00
5492;DHT22;2768;53.540;10.224;2023-12-20T16:06:22;6.20;1.00
5492;DHT22;2768;53.540;10.224;2023-12-20T16:12:18;6.10;1.00
5492;DHT22;2768;53.540;10.224;2023-12-20T16:18:13;6.10;1.00
5492;DHT22;2768;53.540;10.224;2023-12-20T16:24:07;6.10;1.00
5492;DHT22;2768;53.540;10.224;2023-12-20T16:30:01;6.10;1.00
5492;DHT22;2768;53.540;10.224;2023-12-20T16:35:56;6.10;1.00
5492;DHT22;2768;53.540;10.224;2023-12-20T16:41:50;6.10;1.00
5492;DHT22;2768;53.540;10.224;2023-12-20T16:47:44;6.10;1.00
5492;DHT22;2768;53.540;10.224;2023-12-20T16:53:41;6.10;1.00
5492;DHT22;2768;53.540;10.224;2023-12-20T16:59:35;6.10;1.00
5492;DHT22;2768;53.540;10.224;2023-12-20T17:05:31;6.10;1.00
5492;DHT22;2768;53.540;10.224;2023-12-20T17:11:28;5.70;1.00
5492;DHT22;2768;53.540;10.224;2023-12-20T17:17:22;5.30;1.00
5492;DHT22;2768;53.540;10.224;2023-12-20T17:23:15;5.30;13.50
5492;DHT22;2768;53.540;10.224;2023-12-20T17:29:10;5.30;74.70
5492;DHT22;2768;53.540;10.224;2023-12-20T17:35:06;5.30;99.90
5492;DHT22;2768;53.540;10.224;2023-12-20T17:40:59;5.40;99.90
5492;DHT22;2768;53.540;10.224;2023-12-20T17:46:54;5.30;99.90
5492;DHT22;2768;53.540;10.224;2023-12-20T17:52:48;5.30;99.90
5492;DHT22;2768;53.540;10.224;2023-12-20T17:58:43;5.20;99.90
5492;DHT22;2768;53.540;10.224;2023-12-20T18:04:37;5.30;99.90
5492;DHT22;2768;53.540;10.224;2023-12-20T18:10:30;5.30;99.90
5492;DHT22;2768;53.540;10.224;2023-12-20T18:16:26;5.40;99.90
5492;DHT22;2768;53.540;10.224;2023-12-20T18:22:21;5.40;99.90
5492;DHT22;2768;53.540;10.224;2023-12-20T18:28:16;5.40;99.90
5492;DHT22;2768;53.540;10.224;2023-12-20T18:34:14;5.40;99.90
5492;DHT22;2768;53.540;10.224;2023-12-20T18:40:09;5.40;99.90
5492;DHT22;2768;53.540;10.224;2023-12-20T18:46:03;5.40;99.90
5492;DHT22;2768;53.540;10.224;2023-12-20T18:51:57;5.50;99.90
5492;DHT22;2768;53.540;10.224;2023-12-20T18:57:51;5.50;99.90
5492;DHT22;2768;53.540;10.224;2023-12-20T19:03:46;5.50;99.90
5492;DHT22;2768;53.540;10.224;2023-12-20T19:09:39;5.50;99.90
5492;DHT22;2768;53.540;10.224;2023-12-20T19:15:35;5.60;99.90
5492;DHT22;2768;53.540;10.224;2023-12-20T19:21:28;5.60;99.90
5492;DHT22;2768;53.540;10.224;2023-12-20T19:27:21;5.60;99.90
5492;DHT22;2768;53.540;10.224;2023-12-20T19:33:17;5.60;99.90
5492;DHT22;2768;53.540;10.224;2023-12-20T19:39:10;5.60;99.90
5492;DHT22;2768;53.540;10.224;2023-12-20T19:45:04;5.60;99.90
5492;DHT22;2768;53.540;10.224;2023-12-20T19:50:59;5.60;99.90
5492;DHT22;2768;53.540;10.224;2023-12-20T19:56:53;5.60;99.90
5492;DHT22;2768;53.540;10.224;2023-12-20T20:02:46;5.70;99.90
5492;DHT22;2768;53.540;10.224;2023-12-20T20:08:41;5.60;99.90
5492;DHT22;2768;53.540;10.224;2023-12-20T20:14:35;5.60;99.90
5492;DHT22;2768;53.540;10.224;2023-12-20T20:20:28;5.60;99.90
5492;DHT22;2768;53.540;10.224;2023-12-20T20:26:22;5.60;99.90
5492;DHT22;2768;53.540;10.224;2023-12-20T20:32:15;5.60;99.90
5492;DHT22;2768;53.540;10.224;2023-12-20T20:38:09;5.60;99.90
5492;DHT22;2768;53.540;10.224;2023-12-20T20:44:04;5.60;99.90
5492;DHT22;2768;53.540;10.224;2023-12-20T20:49:59;5.60;99.90
5492;DHT22;2768;53.540;10.224;2023-12-20T20:55:52;5.70;99.90
5492;DHT22;2768;53.540;10.224;2023-12-20T21:01:47;5.80;99.90
5492;DHT22;2768;53.540;10.224;2023-12-20T21:07:40;5.80;99.90
5492;DHT22;2768;53.540;10.224;2023-12-20T21:13:37;5.80;99.90
5492;DHT22;2768;53.540;10.224;2023-12-20T21:19:36;5.80;99.90
5492;DHT22;2768;53.540;10.224;2023-12-20T21:25:30;5.80;99.90
5492;DHT22;2768;53.540;10.224;2023-12-20T21:31:24;5.80;99.90
5492;DHT22;2768;53.540;10.224;2023-12-20T21:37:18;5.90;99.90
5492;DHT22;2768;53.540;10.224;2023-12-20T21:43:13;5.80;99.90
5492;DHT22;2768;53.540;10.224;2023-12-20T21:49:06;6.00;99.90
5492;DHT22;2768;53.540;10.224;2023-12-20T21:55:02;6.00;99.90
5492;DHT22;2768;53.540;10.224;2023-12-20T22:00:55;6.10;99.90
5492;DHT22;2768;53.540;10.224;2023-12-20T22:06:48;6.10;99.90
5492;DHT22;2768;53.540;10.224;2023-12-20T22:12:43;6.20;99.90
5492;DHT22;2768;53.540;10.224;2023-12-20T22:18:36;6.20;99.90
5492;DHT22;2768;53.540;10.224;2023-12-20T22:24:29;6.10;99.90
5492;DHT22;2768;53.540;10.224;2023-12-20T22:30:24;6.20;99.90
5492;DHT22;2768;53.540;10.224;2023-12-20T22:36:18;6.20;99.90
5492;DHT22;2768;53.540;10.224;2023-12-20T22:42:11;6.30;99.90
5492;DHT22;2768;53.540;10.224;2023-12-20T22:48:07;6.30;99.90
5492;DHT22;2768;53.540;10.224;2023-12-20T22:54:01;6.40;99.90
5492;DHT22;2768;53.540;10.224;2023-12-20T22:59:55;6.40;99.90
5492;DHT22;2768;53.540;10.224;2023-12-20T23:05:50;6.40;99.90
5492;DHT22;2768;53.540;10.224;2023-12-20T23:11:43;6.40;99.90
5492;DHT22;2768;53.540;10.224;2023-12-20T23:17:40;6.40;99.90
5492;DHT22;2768;53.540;10.224;2023-12-20T23:23:35;6.50;99.90
5492;DHT22;2768;53.540;10.224;2023-12-20T23:29:28;6.60;99.90
5492;DHT22;2768;53.540;10.224;2023-12-20T23:35:22;6.90;99.90
5492;DHT22;2768;53.540;10.224;2023-12-20T23:41:16;7.10;99.90
5492;DHT22;2768;53.540;10.224;2023-12-20T23:47:10;7.30;99.90
5492;DHT22;2768;53.540;10.224;2023-12-20T23:53:04;7.40;99.90
5492;DHT22;2768;53.540;10.224;2023-12-20T23:59:01;7.50;99.90
